sensor_id;sensor_type;location;lat;lon;timestamp;temperature;humidity
52189;DHT22;38162;45.926;13.608;2023-12-28T00:01:27;9.80;99.90
52189;DHT22;38162;45.926;13.608;2023-12-28T00:04:04;9.80;99.90
52189;DHT22;38162;45.926;13.608;2023-12-28T00:06:30;9.80;99.90
52189;DHT22;38162;45.926;13.608;2023-12-28T00:09:16;9.80;99.90
52189;DHT22;38162;45.926;13.608;2023-12-28T00:11:42;9.80;99.90
52189;DHT22;38162;45.926;13.608;2023-12-28T00:14:08;9.80;99.90
52189;DHT22;38162;45.926;13.608;2023-12-28T00:16:34;9.80;99.90
52189;DHT22;38162;45.926;13.608;2023-12-28T00:19:03;9.80;99.90
52189;DHT22;38162;45.926;13.608;2023-12-28T00:21:30;9.80;99.90
52189;DHT22;38162;45.926;13.608;2023-12-28T00:23:56;9.80;99.90
52189;DHT22;38162;45.926;13.608;2023-12-28T00:26:22;9.80;99.90
52189;DHT22;38162;45.926;13.608;2023-12-28T00:28:48;9.80;99.90
52189;DHT22;38162;45.926;13.608;2023-12-28T00:31:14;9.80;99.90
52189;DHT22;38162;45.926;13.608;2023-12-28T00:33:39;9.80;99.90
52189;DHT22;38162;45.926;13.608;2023-12-28T00:36:05;9.80;99.90
52189;DHT22;38162;45.926;13.608;2023-12-28T00:38:31;9.80;99.90
52189;DHT22;38162;45.926;13.608;2023-12-28T00:40:57;9.80;99.90
52189;DHT22;38162;45.926;13.608;2023-12-28T00:43:23;9.80;99.90
52189;DHT22;38162;45.926;13.608;2023-12-28T00:45:49;9.80;99.90
52189;DHT22;38162;45.926;13.608;2023-12-28T00:48:15;9.80;99.90
52189;DHT22;38162;45.926;13.608;2023-12-28T00:50:40;9.80;99.90
52189;DHT22;38162;45.926;13.608;2023-12-28T00:53:06;9.80;99.90
52189;DHT22;38162;45.926;13.608;2023-12-28T00:55:32;9.80;99.90
52189;DHT22;38162;45.926;13.608;2023-12-28T00:57:58;9.80;99.90
52189;DHT22;38162;45.926;13.608;2023-12-28T01:00:23;9.80;99.90
52189;DHT22;38162;45.926;13.608;2023-12-28T01:02:49;9.80;99.90
52189;DHT22;38162;45.926;13.608;2023-12-28T01:05:16;9.80;99.90
52189;DHT22;38162;45.926;13.608;2023-12-28T01:07:42;9.80;99.90
52189;DHT22;38162;45.926;13.608;2023-12-28T01:10:08;9.80;99.90
52189;DHT22;38162;45.926;13.608;2023-12-28T01:12:34;9.80;99.90
52189;DHT22;38162;45.926;13.608;2023-12-28T01:15:00;9.80;99.90
52189;DHT22;38162;45.926;13.608;2023-12-28T01:17:26;9.80;99.90
52189;DHT22;38162;45.926;13.608;2023-12-28T01:19:52;9.80;99.90
52189;DHT22;38162;45.926;13.608;2023-12-28T01:22:30;9.80;99.90
52189;DHT22;38162;45.926;13.608;2023-12-28T01:24:56;9.80;99.90
52189;DHT22;38162;45.926;13.608;2023-12-28T01:27:28;9.80;99.90
52189;DHT22;38162;45.926;13.608;2023-12-28T01:30:23;9.80;99.90
52189;DHT22;38162;45.926;13.608;2023-12-28T01:33:12;9.70;99.90
52189;DHT22;38162;45.926;13.608;2023-12-28T01:35:56;9.70;99.90
52189;DHT22;38162;45.926;13.608;2023-12-28T01:38:46;9.80;99.90
52189;DHT22;38162;45.926;13.608;2023-12-28T01:41:27;9.80;99.90
52189;DHT22;38162;45.926;13.608;2023-12-28T01:44:02;9.80;99.90
52189;DHT22;38162;45.926;13.608;2023-12-28T01:46:28;9.70;99.90
52189;DHT22;38162;45.926;13.608;2023-12-28T01:48:55;9.70;99.90
52189;DHT22;38162;45.926;13.608;2023-12-28T01:51:25;9.70;99.90
52189;DHT22;38162;45.926;13.608;2023-12-28T01:53:52;9.70;99.90
52189;DHT22;38162;45.926;13.608;2023-12-28T01:56:19;9.70;99.90
52189;DHT22;38162;45.926;13.608;2023-12-28T01:58:47;9.70;99.90
52189;DHT22;38162;45.926;13.608;2023-12-28T02:01:14;9.70;99.90
52189;DHT22;38162;45.926;13.608;2023-12-28T02:03:40;9.70;99.90
52189;DHT22;38162;45.926;13.608;2023-12-28T02:06:07;9.70;99.90
52189;DHT22;38162;45.926;13.608;2023-12-28T02:08:33;9.70;99.90
52189;DHT22;38162;45.926;13.608;2023-12-28T02:10:59;9.70;99.90
52189;DHT22;38162;45.926;13.608;2023-12-28T02:13:25;9.70;99.90
52189;DHT22;38162;45.926;13.608;2023-12-28T02:19:03;9.70;99.90
52189;DHT22;38162;45.926;13.608;2023-12-28T02:21:30;9.80;99.90
52189;DHT22;38162;45.926;13.608;2023-12-28T02:23:57;9.70;99.90
52189;DHT22;38162;45.926;13.608;2023-12-28T02:26:22;9.70;99.90
52189;DHT22;38162;45.926;13.608;2023-12-28T02:28:49;9.70;99.90
52189;DHT22;38162;45.926;13.608;2023-12-28T02:31:21;9.80;99.90
52189;DHT22;38162;45.926;13.608;2023-12-28T02:33:54;9.70;99.90
52189;DHT22;38162;45.926;13.608;2023-12-28T02:36:24;9.70;99.90
52189;DHT22;38162;45.926;13.608;2023-12-28T02:38:52;9.70;99.90
52189;DHT22;38162;45.926;13.608;2023-12-28T02:41:21;9.70;99.90
52189;DHT22;38162;45.926;13.608;2023-12-28T02:43:48;9.60;99.90
52189;DHT22;38162;45.926;13.608;2023-12-28T02:46:14;9.60;99.90
52189;DHT22;38162;45.926;13.608;2023-12-28T02:48:41;9.60;99.90
52189;DHT22;38162;45.926;13.608;2023-12-28T02:51:07;9.60;99.90
52189;DHT22;38162;45.926;13.608;2023-12-28T02:53:33;9.60;99.90
52189;DHT22;38162;45.926;13.608;2023-12-28T02:55:59;9.60;99.90
52189;DHT22;38162;45.926;13.608;2023-12-28T02:58:35;9.60;99.90
52189;DHT22;38162;45.926;13.608;2023-12-28T03:01:35;9.60;99.90
52189;DHT22;38162;45.926;13.608;2023-12-28T03:04:30;9.60;99.90
52189;DHT22;38162;45.926;13.608;2023-12-28T03:10:10;9.60;99.90
52189;DHT22;38162;45.926;13.608;2023-12-28T03:13:29;9.50;99.90
52189;DHT22;38162;45.926;13.608;2023-12-28T03:16:16;9.50;99.90
52189;DHT22;38162;45.926;13.608;2023-12-28T03:19:06;9.50;99.90
52189;DHT22;38162;45.926;13.608;2023-12-28T03:22:08;9.50;99.90
52189;DHT22;38162;45.926;13.608;2023-12-28T03:24:37;9.50;99.90
52189;DHT22;38162;45.926;13.608;2023-12-28T03:27:04;9.50;99.90
52189;DHT22;38162;45.926;13.608;2023-12-28T03:29:31;9.50;99.90
52189;DHT22;38162;45.926;13.608;2023-12-28T03:31:57;9.50;99.90
52189;DHT22;38162;45.926;13.608;2023-12-28T03:34:23;9.50;99.90
52189;DHT22;38162;45.926;13.608;2023-12-28T03:36:49;9.50;99.90
52189;DHT22;38162;45.926;13.608;2023-12-28T03:39:15;9.50;99.90
52189;DHT22;38162;45.926;13.608;2023-12-28T03:41:41;9.50;99.90
52189;DHT22;38162;45.926;13.608;2023-12-28T03:44:07;9.50;99.90
52189;DHT22;38162;45.926;13.608;2023-12-28T03:46:33;9.50;99.90
52189;DHT22;38162;45.926;13.608;2023-12-28T03:48:58;9.50;99.90
52189;DHT22;38162;45.926;13.608;2023-12-28T03:51:24;9.50;99.90
52189;DHT22;38162;45.926;13.608;2023-12-28T03:53:50;9.50;99.90
52189;DHT22;38162;45.926;13.608;2023-12-28T03:56:23;9.50;99.90
52189;DHT22;38162;45.926;13.608;2023-12-28T03:58:50;9.50;99.90
52189;DHT22;38162;45.926;13.608;2023-12-28T04:01:20;9.50;99.90
52189;DHT22;38162;45.926;13.608;2023-12-28T04:03:47;9.50;99.90
52189;DHT22;38162;45.926;13.608;2023-12-28T04:06:13;9.50;99.90
52189;DHT22;38162;45.926;13.608;2023-12-28T04:08:42;9.50;99.90
52189;DHT22;38162;45.926;13.608;2023-12-28T04:11:08;9.50;99.90
52189;DHT22;38162;45.926;13.608;2023-12-28T04:13:34;9.50;99.90
52189;DHT22;38162;45.926;13.608;2023-12-28T04:16:00;9.50;99.90
52189;DHT22;38162;45.926;13.608;2023-12-28T04:18:26;9.50;99.90
52189;DHT22;38162;45.926;13.608;2023-12-28T04:20:52;9.50;99.90
52189;DHT22;38162;45.926;13.608;2023-12-28T04:23:18;9.50;99.90
52189;DHT22;38162;45.926;13.608;2023-12-28T04:25:44;9.50;99.90
52189;DHT22;38162;45.926;13.608;2023-12-28T04:28:10;9.50;99.90
52189;DHT22;38162;45.926;13.608;2023-12-28T04:30:36;9.50;99.90
52189;DHT22;38162;45.926;13.608;2023-12-28T04:33:23;9.50;99.90
52189;DHT22;38162;45.926;13.608;2023-12-28T04:36:31;9.50;99.90
52189;DHT22;38162;45.926;13.608;2023-12-28T04:39:32;9.50;99.90
52189;DHT22;38162;45.926;13.608;2023-12-28T04:42:59;9.50;99.90
52189;DHT22;38162;45.926;13.608;2023-12-28T04:48:22;9.50;99.90
52189;DHT22;38162;45.926;13.608;2023-12-28T04:51:08;9.40;99.90
52189;DHT22;38162;45.926;13.608;2023-12-28T04:53:40;9.50;99.90
52189;DHT22;38162;45.926;13.608;2023-12-28T04:56:06;9.40;99.90
52189;DHT22;38162;45.926;13.608;2023-12-28T04:58:56;9.40;99.90
52189;DHT22;38162;45.926;13.608;2023-12-28T05:01:22;9.40;99.90
52189;DHT22;38162;45.926;13.608;2023-12-28T05:03:49;9.40;99.90
52189;DHT22;38162;45.926;13.608;2023-12-28T05:06:15;9.40;99.90
52189;DHT22;38162;45.926;13.608;2023-12-28T05:08:41;9.40;99.90
52189;DHT22;38162;45.926;13.608;2023-12-28T05:11:07;9.50;99.90
52189;DHT22;38162;45.926;13.608;2023-12-28T05:13:33;9.40;99.90
52189;DHT22;38162;45.926;13.608;2023-12-28T05:16:01;9.40;99.90
52189;DHT22;38162;45.926;13.608;2023-12-28T05:18:26;9.40;99.90
52189;DHT22;38162;45.926;13.608;2023-12-28T05:20:52;9.40;99.90
52189;DHT22;38162;45.926;13.608;2023-12-28T05:23:18;9.40;99.90
52189;DHT22;38162;45.926;13.608;2023-12-28T05:25:44;9.40;99.90
52189;DHT22;38162;45.926;13.608;2023-12-28T05:28:11;9.40;99.90
52189;DHT22;38162;45.926;13.608;2023-12-28T05:30:37;9.40;99.90
52189;DHT22;38162;45.926;13.608;2023-12-28T05:33:03;9.40;99.90
52189;DHT22;38162;45.926;13.608;2023-12-28T05:35:29;9.40;99.90
52189;DHT22;38162;45.926;13.608;2023-12-28T05:37:55;9.40;99.90
52189;DHT22;38162;45.926;13.608;2023-12-28T05:40:20;9.40;99.90
52189;DHT22;38162;45.926;13.608;2023-12-28T05:42:46;9.40;99.90
52189;DHT22;38162;45.926;13.608;2023-12-28T05:45:12;9.40;99.90
52189;DHT22;38162;45.926;13.608;2023-12-28T05:47:38;9.40;99.90
52189;DHT22;38162;45.926;13.608;2023-12-28T05:50:04;9.40;99.90
52189;DHT22;38162;45.926;13.608;2023-12-28T05:52:31;9.40;99.90
52189;DHT22;38162;45.926;13.608;2023-12-28T05:54:57;9.40;99.90
52189;DHT22;38162;45.926;13.608;2023-12-28T05:57:22;9.40;99.90
52189;DHT22;38162;45.926;13.608;2023-12-28T05:59:48;9.40;99.90
52189;DHT22;38162;45.926;13.608;2023-12-28T06:02:14;9.40;99.90
52189;DHT22;38162;45.926;13.608;2023-12-28T06:04:40;9.40;99.90
52189;DHT22;38162;45.926;13.608;2023-12-28T06:07:06;9.40;99.90
52189;DHT22;38162;45.926;13.608;2023-12-28T06:09:32;9.40;99.90
52189;DHT22;38162;45.926;13.608;2023-12-28T06:26:10;9.30;99.90
52189;DHT22;38162;45.926;13.608;2023-12-28T06:32:01;9.30;99.90
52189;DHT22;38162;45.926;13.608;2023-12-28T06:37:39;9.30;99.90
52189;DHT22;38162;45.926;13.608;2023-12-28T06:40:06;9.30;99.90
52189;DHT22;38162;45.926;13.608;2023-12-28T06:42:32;9.30;99.90
52189;DHT22;38162;45.926;13.608;2023-12-28T06:44:58;9.30;99.90
52189;DHT22;38162;45.926;13.608;2023-12-28T06:47:24;9.30;99.90
52189;DHT22;38162;45.926;13.608;2023-12-28T06:49:51;9.30;99.90
52189;DHT22;38162;45.926;13.608;2023-12-28T06:52:16;9.30;99.90
52189;DHT22;38162;45.926;13.608;2023-12-28T06:54:42;9.30;99.90
52189;DHT22;38162;45.926;13.608;2023-12-28T06:57:08;9.30;99.90
52189;DHT22;38162;45.926;13.608;2023-12-28T06:59:34;9.30;99.90
52189;DHT22;38162;45.926;13.608;2023-12-28T07:01:59;9.20;99.90
52189;DHT22;38162;45.926;13.608;2023-12-28T07:04:25;9.20;99.90
52189;DHT22;38162;45.926;13.608;2023-12-28T07:06:55;9.20;99.90
52189;DHT22;38162;45.926;13.608;2023-12-28T07:09:21;9.20;99.90
52189;DHT22;38162;45.926;13.608;2023-12-28T07:11:47;9.20;99.90
52189;DHT22;38162;45.926;13.608;2023-12-28T07:14:13;9.20;99.90
52189;DHT22;38162;45.926;13.608;2023-12-28T07:16:42;9.20;99.90
52189;DHT22;38162;45.926;13.608;2023-12-28T07:19:08;9.30;99.90
52189;DHT22;38162;45.926;13.608;2023-12-28T07:21:33;9.20;99.90
52189;DHT22;38162;45.926;13.608;2023-12-28T07:23:59;9.20;99.90
52189;DHT22;38162;45.926;13.608;2023-12-28T07:26:25;9.20;99.90
52189;DHT22;38162;45.926;13.608;2023-12-28T07:28:51;9.20;99.90
52189;DHT22;38162;45.926;13.608;2023-12-28T07:31:27;9.20;99.90
52189;DHT22;38162;45.926;13.608;2023-12-28T07:33:53;9.20;99.90
52189;DHT22;38162;45.926;13.608;2023-12-28T07:36:20;9.20;99.90
52189;DHT22;38162;45.926;13.608;2023-12-28T07:38:45;9.20;99.90
52189;DHT22;38162;45.926;13.608;2023-12-28T07:41:11;9.20;99.90
52189;DHT22;38162;45.926;13.608;2023-12-28T07:43:37;9.20;99.90
52189;DHT22;38162;45.926;13.608;2023-12-28T07:46:03;9.20;99.90
52189;DHT22;38162;45.926;13.608;2023-12-28T07:48:35;9.20;99.90
52189;DHT22;38162;45.926;13.608;2023-12-28T07:51:36;9.20;99.90
52189;DHT22;38162;45.926;13.608;2023-12-28T07:54:41;9.20;99.90
52189;DHT22;38162;45.926;13.608;2023-12-28T08:11:15;9.30;99.90
52189;DHT22;38162;45.926;13.608;2023-12-28T08:14:51;9.30;99.90
52189;DHT22;38162;45.926;13.608;2023-12-28T08:17:13;9.30;99.90
52189;DHT22;38162;45.926;13.608;2023-12-28T08:19:39;9.30;99.90
52189;DHT22;38162;45.926;13.608;2023-12-28T08:22:05;9.30;99.90
52189;DHT22;38162;45.926;13.608;2023-12-28T08:24:31;9.30;99.90
52189;DHT22;38162;45.926;13.608;2023-12-28T08:26:58;9.30;99.90
52189;DHT22;38162;45.926;13.608;2023-12-28T08:29:25;9.30;99.90
52189;DHT22;38162;45.926;13.608;2023-12-28T08:31:51;9.30;99.90
52189;DHT22;38162;45.926;13.608;2023-12-28T08:34:17;9.30;99.90
52189;DHT22;38162;45.926;13.608;2023-12-28T08:36:43;9.40;99.90
52189;DHT22;38162;45.926;13.608;2023-12-28T08:39:09;9.40;99.90
52189;DHT22;38162;45.926;13.608;2023-12-28T08:41:34;9.40;99.90
52189;DHT22;38162;45.926;13.608;2023-12-28T08:44:00;9.40;99.90
52189;DHT22;38162;45.926;13.608;2023-12-28T08:46:26;9.40;99.90
52189;DHT22;38162;45.926;13.608;2023-12-28T08:48:52;9.40;99.90
52189;DHT22;38162;45.926;13.608;2023-12-28T08:51:18;9.40;99.90
52189;DHT22;38162;45.926;13.608;2023-12-28T08:53:44;9.40;99.90
52189;DHT22;38162;45.926;13.608;2023-12-28T08:56:18;9.40;99.90
52189;DHT22;38162;45.926;13.608;2023-12-28T08:58:45;9.40;99.90
52189;DHT22;38162;45.926;13.608;2023-12-28T09:01:30;9.40;99.90
52189;DHT22;38162;45.926;13.608;2023-12-28T09:03:57;9.40;99.90
52189;DHT22;38162;45.926;13.608;2023-12-28T09:06:23;9.50;99.90
52189;DHT22;38162;45.926;13.608;2023-12-28T09:08:51;9.50;99.90
52189;DHT22;38162;45.926;13.608;2023-12-28T09:11:18;9.50;99.90
52189;DHT22;38162;45.926;13.608;2023-12-28T09:13:44;9.50;99.90
52189;DHT22;38162;45.926;13.608;2023-12-28T09:16:14;9.50;99.90
52189;DHT22;38162;45.926;13.608;2023-12-28T09:18:41;9.50;99.90
52189;DHT22;38162;45.926;13.608;2023-12-28T09:21:08;9.50;99.90
52189;DHT22;38162;45.926;13.608;2023-12-28T09:23:35;9.50;99.90
52189;DHT22;38162;45.926;13.608;2023-12-28T09:26:03;9.50;99.90
52189;DHT22;38162;45.926;13.608;2023-12-28T09:31:48;9.60;99.90
52189;DHT22;38162;45.926;13.608;2023-12-28T09:48:58;9.60;99.90
52189;DHT22;38162;45.926;13.608;2023-12-28T09:51:25;9.60;99.90
52189;DHT22;38162;45.926;13.608;2023-12-28T09:53:52;9.70;99.90
52189;DHT22;38162;45.926;13.608;2023-12-28T09:56:18;9.70;99.90
52189;DHT22;38162;45.926;13.608;2023-12-28T09:58:44;9.70;99.90
52189;DHT22;38162;45.926;13.608;2023-12-28T10:01:14;9.70;99.90
52189;DHT22;38162;45.926;13.608;2023-12-28T10:03:40;9.70;99.90
52189;DHT22;38162;45.926;13.608;2023-12-28T10:06:06;9.70;99.90
52189;DHT22;38162;45.926;13.608;2023-12-28T10:08:31;9.70;99.90
52189;DHT22;38162;45.926;13.608;2023-12-28T10:10:57;9.70;99.90
52189;DHT22;38162;45.926;13.608;2023-12-28T10:13:25;9.80;99.90
52189;DHT22;38162;45.926;13.608;2023-12-28T10:15:51;9.80;99.90
52189;DHT22;38162;45.926;13.608;2023-12-28T10:18:20;9.80;99.90
52189;DHT22;38162;45.926;13.608;2023-12-28T10:20:52;9.80;99.90
52189;DHT22;38162;45.926;13.608;2023-12-28T10:23:19;9.80;99.90
52189;DHT22;38162;45.926;13.608;2023-12-28T10:25:46;9.80;99.90
52189;DHT22;38162;45.926;13.608;2023-12-28T10:28:13;9.80;99.90
52189;DHT22;38162;45.926;13.608;2023-12-28T10:30:41;9.80;99.90
52189;DHT22;38162;45.926;13.608;2023-12-28T10:33:07;9.80;99.90
52189;DHT22;38162;45.926;13.608;2023-12-28T10:35:33;9.80;99.90
52189;DHT22;38162;45.926;13.608;2023-12-28T10:38:02;9.80;99.90
52189;DHT22;38162;45.926;13.608;2023-12-28T10:40:29;9.80;99.90
52189;DHT22;38162;45.926;13.608;2023-12-28T10:43:04;9.80;99.90
52189;DHT22;38162;45.926;13.608;2023-12-28T10:45:35;9.80;99.90
52189;DHT22;38162;45.926;13.608;2023-12-28T10:48:08;9.80;99.90
52189;DHT22;38162;45.926;13.608;2023-12-28T10:50:42;9.80;99.90
52189;DHT22;38162;45.926;13.608;2023-12-28T10:58:49;9.80;99.90
52189;DHT22;38162;45.926;13.608;2023-12-28T11:01:34;9.90;99.90
52189;DHT22;38162;45.926;13.608;2023-12-28T11:04:10;9.80;99.90
52189;DHT22;38162;45.926;13.608;2023-12-28T11:06:37;9.90;99.90
52189;DHT22;38162;45.926;13.608;2023-12-28T11:19:57;9.90;99.90
52189;DHT22;38162;45.926;13.608;2023-12-28T11:22:24;9.90;99.90
52189;DHT22;38162;45.926;13.608;2023-12-28T11:28:32;9.90;99.90
52189;DHT22;38162;45.926;13.608;2023-12-28T11:30:59;10.00;99.90
52189;DHT22;38162;45.926;13.608;2023-12-28T11:33:30;9.90;99.90
52189;DHT22;38162;45.926;13.608;2023-12-28T11:35:57;10.00;99.90
52189;DHT22;38162;45.926;13.608;2023-12-28T11:38:24;10.00;99.90
52189;DHT22;38162;45.926;13.608;2023-12-28T11:40:50;10.00;99.90
52189;DHT22;38162;45.926;13.608;2023-12-28T11:43:19;10.00;99.90
52189;DHT22;38162;45.926;13.608;2023-12-28T11:45:55;10.00;99.90
52189;DHT22;38162;45.926;13.608;2023-12-28T11:48:27;10.00;99.90
52189;DHT22;38162;45.926;13.608;2023-12-28T11:50:58;10.00;99.90
52189;DHT22;38162;45.926;13.608;2023-12-28T11:53:25;10.00;99.90
52189;DHT22;38162;45.926;13.608;2023-12-28T11:55:51;10.10;99.90
52189;DHT22;38162;45.926;13.608;2023-12-28T11:58:18;10.00;99.90
52189;DHT22;38162;45.926;13.608;2023-12-28T12:00:44;10.10;99.90
52189;DHT22;38162;45.926;13.608;2023-12-28T12:03:11;10.00;99.90
52189;DHT22;38162;45.926;13.608;2023-12-28T12:05:37;10.00;99.90
52189;DHT22;38162;45.926;13.608;2023-12-28T12:08:04;10.10;99.90
52189;DHT22;38162;45.926;13.608;2023-12-28T12:10:30;10.10;99.90
52189;DHT22;38162;45.926;13.608;2023-12-28T12:12:57;10.10;99.90
52189;DHT22;38162;45.926;13.608;2023-12-28T12:15:23;10.10;99.90
52189;DHT22;38162;45.926;13.608;2023-12-28T12:17:50;10.10;99.90
52189;DHT22;38162;45.926;13.608;2023-12-28T12:20:16;10.10;99.90
52189;DHT22;38162;45.926;13.608;2023-12-28T12:22:41;10.10;99.90
52189;DHT22;38162;45.926;13.608;2023-12-28T12:25:08;10.10;99.90
52189;DHT22;38162;45.926;13.608;2023-12-28T12:27:36;10.20;99.90
52189;DHT22;38162;45.926;13.608;2023-12-28T12:30:02;10.10;99.90
52189;DHT22;38162;45.926;13.608;2023-12-28T12:32:28;10.10;99.90
52189;DHT22;38162;45.926;13.608;2023-12-28T12:34:55;10.20;99.90
52189;DHT22;38162;45.926;13.608;2023-12-28T12:54:35;10.20;99.90
52189;DHT22;38162;45.926;13.608;2023-12-28T12:57:48;10.20;99.90
52189;DHT22;38162;45.926;13.608;2023-12-28T13:03:40;10.20;99.90
52189;DHT22;38162;45.926;13.608;2023-12-28T13:06:06;10.20;99.90
52189;DHT22;38162;45.926;13.608;2023-12-28T13:08:33;10.30;99.90
52189;DHT22;38162;45.926;13.608;2023-12-28T13:10:59;10.20;99.90
52189;DHT22;38162;45.926;13.608;2023-12-28T13:13:25;10.20;99.90
52189;DHT22;38162;45.926;13.608;2023-12-28T13:15:51;10.20;99.90
52189;DHT22;38162;45.926;13.608;2023-12-28T13:18:17;10.20;99.90
52189;DHT22;38162;45.926;13.608;2023-12-28T13:20:43;10.20;99.90
52189;DHT22;38162;45.926;13.608;2023-12-28T13:23:10;10.20;99.90
52189;DHT22;38162;45.926;13.608;2023-12-28T13:25:36;10.20;99.90
52189;DHT22;38162;45.926;13.608;2023-12-28T13:28:01;10.20;99.90
52189;DHT22;38162;45.926;13.608;2023-12-28T13:30:27;10.20;99.90
52189;DHT22;38162;45.926;13.608;2023-12-28T13:32:57;10.30;99.90
52189;DHT22;38162;45.926;13.608;2023-12-28T13:35:23;10.30;99.90
52189;DHT22;38162;45.926;13.608;2023-12-28T13:37:49;10.30;99.90
52189;DHT22;38162;45.926;13.608;2023-12-28T13:40:15;10.30;99.90
52189;DHT22;38162;45.926;13.608;2023-12-28T13:42:41;10.30;99.90
52189;DHT22;38162;45.926;13.608;2023-12-28T13:45:07;10.30;99.90
52189;DHT22;38162;45.926;13.608;2023-12-28T13:47:33;10.30;99.90
52189;DHT22;38162;45.926;13.608;2023-12-28T13:49:59;10.30;99.90
52189;DHT22;38162;45.926;13.608;2023-12-28T13:52:25;10.30;99.90
52189;DHT22;38162;45.926;13.608;2023-12-28T13:54:51;10.30;99.90
52189;DHT22;38162;45.926;13.608;2023-12-28T13:57:17;10.30;99.90
52189;DHT22;38162;45.926;13.608;2023-12-28T13:59:43;10.30;99.90
52189;DHT22;38162;45.926;13.608;2023-12-28T14:02:08;10.30;99.90
52189;DHT22;38162;45.926;13.608;2023-12-28T14:04:34;10.30;99.90
52189;DHT22;38162;45.926;13.608;2023-12-28T14:07:02;10.30;99.90
52189;DHT22;38162;45.926;13.608;2023-12-28T14:09:29;10.30;99.90
52189;DHT22;38162;45.926;13.608;2023-12-28T14:11:56;10.30;99.90
52189;DHT22;38162;45.926;13.608;2023-12-28T14:14:51;10.30;99.90
52189;DHT22;38162;45.926;13.608;2023-12-28T14:17:23;10.30;99.90
52189;DHT22;38162;45.926;13.608;2023-12-28T14:20:00;10.30;99.90
52189;DHT22;38162;45.926;13.608;2023-12-28T14:22:32;10.30;99.90
52189;DHT22;38162;45.926;13.608;2023-12-28T14:25:33;10.30;99.90
52189;DHT22;38162;45.926;13.608;2023-12-28T14:31:24;10.30;99.90
52189;DHT22;38162;45.926;13.608;2023-12-28T14:33:55;10.30;99.90
52189;DHT22;38162;45.926;13.608;2023-12-28T14:36:30;10.20;99.90
52189;DHT22;38162;45.926;13.608;2023-12-28T14:39:00;10.30;99.90
52189;DHT22;38162;45.926;13.608;2023-12-28T14:41:26;10.20;99.90
52189;DHT22;38162;45.926;13.608;2023-12-28T14:43:56;10.20;99.90
52189;DHT22;38162;45.926;13.608;2023-12-28T14:46:25;10.20;99.90
52189;DHT22;38162;45.926;13.608;2023-12-28T14:48:51;10.20;99.90
52189;DHT22;38162;45.926;13.608;2023-12-28T14:51:18;10.20;99.90
52189;DHT22;38162;45.926;13.608;2023-12-28T14:53:45;10.20;99.90
52189;DHT22;38162;45.926;13.608;2023-12-28T14:56:11;10.30;99.90
52189;DHT22;38162;45.926;13.608;2023-12-28T14:58:38;10.20;99.90
52189;DHT22;38162;45.926;13.608;2023-12-28T15:01:05;10.20;99.90
52189;DHT22;38162;45.926;13.608;2023-12-28T15:03:31;10.20;99.90
52189;DHT22;38162;45.926;13.608;2023-12-28T15:05:56;10.30;99.90
52189;DHT22;38162;45.926;13.608;2023-12-28T15:08:24;10.20;99.90
52189;DHT22;38162;45.926;13.608;2023-12-28T15:10:51;10.20;99.90
52189;DHT22;38162;45.926;13.608;2023-12-28T15:13:17;10.20;99.90
52189;DHT22;38162;45.926;13.608;2023-12-28T15:15:46;10.20;99.90
52189;DHT22;38162;45.926;13.608;2023-12-28T15:18:14;10.20;99.90
52189;DHT22;38162;45.926;13.608;2023-12-28T15:20:46;10.20;99.90
52189;DHT22;38162;45.926;13.608;2023-12-28T15:23:13;10.20;99.90
52189;DHT22;38162;45.926;13.608;2023-12-28T15:25:41;10.20;99.90
52189;DHT22;38162;45.926;13.608;2023-12-28T15:28:07;10.20;99.90
52189;DHT22;38162;45.926;13.608;2023-12-28T15:30:32;10.20;99.90
52189;DHT22;38162;45.926;13.608;2023-12-28T15:32:58;10.20;99.90
52189;DHT22;38162;45.926;13.608;2023-12-28T15:35:24;10.10;99.90
52189;DHT22;38162;45.926;13.608;2023-12-28T15:37:50;10.20;99.90
52189;DHT22;38162;45.926;13.608;2023-12-28T15:40:20;10.10;99.90
52189;DHT22;38162;45.926;13.608;2023-12-28T15:42:46;10.20;99.90
52189;DHT22;38162;45.926;13.608;2023-12-28T15:45:12;10.10;99.90
52189;DHT22;38162;45.926;13.608;2023-12-28T15:47:53;10.20;99.90
52189;DHT22;38162;45.926;13.608;2023-12-28T16:12:01;10.10;99.90
52189;DHT22;38162;45.926;13.608;2023-12-28T16:14:31;10.10;99.90
52189;DHT22;38162;45.926;13.608;2023-12-28T16:16:57;10.10;99.90
52189;DHT22;38162;45.926;13.608;2023-12-28T16:19:23;10.10;99.90
52189;DHT22;38162;45.926;13.608;2023-12-28T16:21:49;10.10;99.90
52189;DHT22;38162;45.926;13.608;2023-12-28T16:24:15;10.10;99.90
52189;DHT22;38162;45.926;13.608;2023-12-28T16:26:41;10.10;99.90
52189;DHT22;38162;45.926;13.608;2023-12-28T16:29:07;10.10;99.90
52189;DHT22;38162;45.926;13.608;2023-12-28T16:31:33;10.10;99.90
52189;DHT22;38162;45.926;13.608;2023-12-28T16:34:00;10.10;99.90
52189;DHT22;38162;45.926;13.608;2023-12-28T16:36:26;10.10;99.90
52189;DHT22;38162;45.926;13.608;2023-12-28T16:38:52;10.10;99.90
52189;DHT22;38162;45.926;13.608;2023-12-28T16:41:17;10.10;99.90
52189;DHT22;38162;45.926;13.608;2023-12-28T16:43:44;10.10;99.90
52189;DHT22;38162;45.926;13.608;2023-12-28T16:46:12;10.10;99.90
52189;DHT22;38162;45.926;13.608;2023-12-28T16:48:38;10.10;99.90
52189;DHT22;38162;45.926;13.608;2023-12-28T16:51:04;10.10;99.90
52189;DHT22;38162;45.926;13.608;2023-12-28T16:53:31;10.10;99.90
52189;DHT22;38162;45.926;13.608;2023-12-28T16:55:59;10.10;99.90
52189;DHT22;38162;45.926;13.608;2023-12-28T16:58:26;10.10;99.90
52189;DHT22;38162;45.926;13.608;2023-12-28T17:00:53;10.10;99.90
52189;DHT22;38162;45.926;13.608;2023-12-28T17:03:18;10.10;99.90
52189;DHT22;38162;45.926;13.608;2023-12-28T17:05:44;10.10;99.90
52189;DHT22;38162;45.926;13.608;2023-12-28T17:08:10;10.10;99.90
52189;DHT22;38162;45.926;13.608;2023-12-28T17:10:37;10.10;99.90
52189;DHT22;38162;45.926;13.608;2023-12-28T17:13:10;10.00;99.90
52189;DHT22;38162;45.926;13.608;2023-12-28T17:15:36;10.10;99.90
52189;DHT22;38162;45.926;13.608;2023-12-28T17:18:07;10.10;99.90
52189;DHT22;38162;45.926;13.608;2023-12-28T17:20:33;10.10;99.90
52189;DHT22;38162;45.926;13.608;2023-12-28T17:23:08;10.10;99.90
52189;DHT22;38162;45.926;13.608;2023-12-28T17:36:24;10.00;99.90
52189;DHT22;38162;45.926;13.608;2023-12-28T17:38:53;10.10;99.90
52189;DHT22;38162;45.926;13.608;2023-12-28T17:41:42;10.00;99.90
52189;DHT22;38162;45.926;13.608;2023-12-28T17:51:23;9.90;99.90
52189;DHT22;38162;45.926;13.608;2023-12-28T17:53:49;9.90;99.90
52189;DHT22;38162;45.926;13.608;2023-12-28T17:56:15;9.90;99.90
52189;DHT22;38162;45.926;13.608;2023-12-28T17:58:42;9.90;99.90
52189;DHT22;38162;45.926;13.608;2023-12-28T18:01:11;9.90;99.90
52189;DHT22;38162;45.926;13.608;2023-12-28T18:03:37;9.90;99.90